sensor_id;sensor_type;location;lat;lon;timestamp;P1;durP1;ratioP1;P2;durP2;ratioP2
36855;SDS011;22788;51.434;6.786;2023-10-09T00:01:32;11.80;;;7.35;;
36855;SDS011;22788;51.434;6.786;2023-10-09T00:03:59;13.38;;;7.25;;
36855;SDS011;22788;51.434;6.786;2023-10-09T00:06:25;16.10;;;9.18;;
36855;SDS011;22788;51.434;6.786;2023-10-09T00:08:51;14.40;;;8.85;;
36855;SDS011;22788;51.434;6.786;2023-10-09T00:11:16;14.02;;;7.53;;
36855;SDS011;22788;51.434;6.786;2023-10-09T00:13:42;16.38;;;8.90;;
36855;SDS011;22788;51.434;6.786;2023-10-09T00:16:09;14.13;;;7.82;;
36855;SDS011;22788;51.434;6.786;2023-10-09T00:18:34;13.15;;;7.72;;
36855;SDS011;22788;51.434;6.786;2023-10-09T00:21:01;12.65;;;8.05;;
36855;SDS011;22788;51.434;6.786;2023-10-09T00:23:27;12.45;;;7.53;;
36855;SDS011;22788;51.434;6.786;2023-10-09T00:25:52;13.50;;;7.50;;
36855;SDS011;22788;51.434;6.786;2023-10-09T00:28:18;12.73;;;7.70;;
36855;SDS011;22788;51.434;6.786;2023-10-09T00:30:44;12.13;;;8.38;;
36855;SDS011;22788;51.434;6.786;2023-10-09T00:33:09;11.82;;;7.38;;
36855;SDS011;22788;51.434;6.786;2023-10-09T00:35:36;12.98;;;7.47;;
36855;SDS011;22788;51.434;6.786;2023-10-09T00:38:04;12.15;;;7.00;;
36855;SDS011;22788;51.434;6.786;2023-10-09T00:40:30;11.50;;;8.10;;
36855;SDS011;22788;51.434;6.786;2023-10-09T00:42:56;11.30;;;7.85;;
36855;SDS011;22788;51.434;6.786;2023-10-09T00:45:21;11.95;;;8.10;;
36855;SDS011;22788;51.434;6.786;2023-10-09T00:47:47;10.98;;;7.50;;
36855;SDS011;22788;51.434;6.786;2023-10-09T00:50:17;13.48;;;7.88;;
36855;SDS011;22788;51.434;6.786;2023-10-09T00:52:44;13.63;;;8.43;;
36855;SDS011;22788;51.434;6.786;2023-10-09T00:55:13;12.20;;;7.40;;
36855;SDS011;22788;51.434;6.786;2023-10-09T00:57:39;9.48;;;7.15;;
36855;SDS011;22788;51.434;6.786;2023-10-09T01:00:09;14.45;;;7.38;;
36855;SDS011;22788;51.434;6.786;2023-10-09T01:02:35;11.18;;;6.90;;
36855;SDS011;22788;51.434;6.786;2023-10-09T01:05:01;12.27;;;7.85;;
36855;SDS011;22788;51.434;6.786;2023-10-09T01:07:28;11.68;;;7.22;;
36855;SDS011;22788;51.434;6.786;2023-10-09T01:09:54;12.10;;;7.68;;
36855;SDS011;22788;51.434;6.786;2023-10-09T01:12:21;14.10;;;7.57;;
36855;SDS011;22788;51.434;6.786;2023-10-09T01:14:46;12.02;;;6.70;;
36855;SDS011;22788;51.434;6.786;2023-10-09T01:17:12;8.57;;;6.85;;
36855;SDS011;22788;51.434;6.786;2023-10-09T01:19:38;11.25;;;7.28;;
36855;SDS011;22788;51.434;6.786;2023-10-09T01:22:04;11.15;;;7.70;;
36855;SDS011;22788;51.434;6.786;2023-10-09T01:24:31;10.48;;;7.22;;
36855;SDS011;22788;51.434;6.786;2023-10-09T01:26:57;13.60;;;7.15;;
36855;SDS011;22788;51.434;6.786;2023-10-09T01:29:23;13.13;;;7.35;;
36855;SDS011;22788;51.434;6.786;2023-10-09T01:31:49;12.65;;;7.20;;
36855;SDS011;22788;51.434;6.786;2023-10-09T01:34:16;11.18;;;7.68;;
36855;SDS011;22788;51.434;6.786;2023-10-09T01:36:42;10.32;;;7.00;;
36855;SDS011;22788;51.434;6.786;2023-10-09T01:39:07;11.10;;;6.90;;
36855;SDS011;22788;51.434;6.786;2023-10-09T01:41:34;11.75;;;6.57;;
36855;SDS011;22788;51.434;6.786;2023-10-09T01:44:00;12.90;;;6.50;;
36855;SDS011;22788;51.434;6.786;2023-10-09T01:46:26;11.07;;;7.15;;
36855;SDS011;22788;51.434;6.786;2023-10-09T01:48:51;10.27;;;6.53;;
36855;SDS011;22788;51.434;6.786;2023-10-09T01:51:17;12.13;;;7.03;;
36855;SDS011;22788;51.434;6.786;2023-10-09T01:53:43;10.27;;;7.05;;
36855;SDS011;22788;51.434;6.786;2023-10-09T01:56:09;11.20;;;6.68;;
36855;SDS011;22788;51.434;6.786;2023-10-09T01:58:36;11.57;;;6.57;;
36855;SDS011;22788;51.434;6.786;2023-10-09T02:01:02;10.20;;;6.20;;
36855;SDS011;22788;51.434;6.786;2023-10-09T02:03:27;10.15;;;6.63;;
36855;SDS011;22788;51.434;6.786;2023-10-09T02:05:53;11.77;;;7.43;;
36855;SDS011;22788;51.434;6.786;2023-10-09T02:08:18;10.82;;;6.68;;
36855;SDS011;22788;51.434;6.786;2023-10-09T02:10:44;10.50;;;6.97;;
36855;SDS011;22788;51.434;6.786;2023-10-09T02:13:10;11.10;;;6.78;;
36855;SDS011;22788;51.434;6.786;2023-10-09T02:15:37;10.65;;;7.15;;
36855;SDS011;22788;51.434;6.786;2023-10-09T02:18:03;9.63;;;5.85;;
36855;SDS011;22788;51.434;6.786;2023-10-09T02:20:29;10.60;;;6.85;;
36855;SDS011;22788;51.434;6.786;2023-10-09T02:22:55;10.23;;;6.97;;
36855;SDS011;22788;51.434;6.786;2023-10-09T02:25:20;12.63;;;6.43;;
36855;SDS011;22788;51.434;6.786;2023-10-09T02:27:48;11.93;;;7.22;;
36855;SDS011;22788;51.434;6.786;2023-10-09T02:30:14;10.68;;;6.80;;
36855;SDS011;22788;51.434;6.786;2023-10-09T02:32:41;11.95;;;6.82;;
36855;SDS011;22788;51.434;6.786;2023-10-09T02:35:07;10.60;;;7.22;;
36855;SDS011;22788;51.434;6.786;2023-10-09T02:37:34;9.65;;;6.90;;
36855;SDS011;22788;51.434;6.786;2023-10-09T02:39:59;13.18;;;6.82;;
36855;SDS011;22788;51.434;6.786;2023-10-09T02:42:25;12.88;;;7.50;;
36855;SDS011;22788;51.434;6.786;2023-10-09T02:44:50;10.05;;;6.93;;
36855;SDS011;22788;51.434;6.786;2023-10-09T02:47:16;8.95;;;5.85;;
36855;SDS011;22788;51.434;6.786;2023-10-09T02:49:44;8.65;;;6.63;;
36855;SDS011;22788;51.434;6.786;2023-10-09T02:52:09;13.65;;;7.10;;
36855;SDS011;22788;51.434;6.786;2023-10-09T02:54:35;11.63;;;7.05;;
36855;SDS011;22788;51.434;6.786;2023-10-09T02:57:01;10.43;;;6.40;;
36855;SDS011;22788;51.434;6.786;2023-10-09T02:59:26;10.55;;;6.50;;
36855;SDS011;22788;51.434;6.786;2023-10-09T03:01:52;10.13;;;6.50;;
36855;SDS011;22788;51.434;6.786;2023-10-09T03:04:17;10.75;;;6.57;;
36855;SDS011;22788;51.434;6.786;2023-10-09T03:06:45;9.43;;;6.35;;
36855;SDS011;22788;51.434;6.786;2023-10-09T03:09:10;10.02;;;6.95;;
36855;SDS011;22788;51.434;6.786;2023-10-09T03:11:36;10.75;;;6.90;;
36855;SDS011;22788;51.434;6.786;2023-10-09T03:14:01;8.80;;;6.15;;
36855;SDS011;22788;51.434;6.786;2023-10-09T03:16:27;8.77;;;6.70;;
36855;SDS011;22788;51.434;6.786;2023-10-09T03:18:53;9.43;;;6.10;;
36855;SDS011;22788;51.434;6.786;2023-10-09T03:21:18;9.60;;;6.38;;
36855;SDS011;22788;51.434;6.786;2023-10-09T03:23:47;8.80;;;6.60;;
36855;SDS011;22788;51.434;6.786;2023-10-09T03:26:13;11.38;;;6.90;;
36855;SDS011;22788;51.434;6.786;2023-10-09T03:28:39;8.68;;;6.15;;
36855;SDS011;22788;51.434;6.786;2023-10-09T03:31:04;9.65;;;6.05;;
36855;SDS011;22788;51.434;6.786;2023-10-09T03:33:30;11.38;;;6.43;;
36855;SDS011;22788;51.434;6.786;2023-10-09T03:35:55;10.48;;;6.20;;
36855;SDS011;22788;51.434;6.786;2023-10-09T03:38:21;8.93;;;6.82;;
36855;SDS011;22788;51.434;6.786;2023-10-09T03:40:48;11.40;;;6.95;;
36855;SDS011;22788;51.434;6.786;2023-10-09T03:43:14;7.63;;;5.93;;
36855;SDS011;22788;51.434;6.786;2023-10-09T03:45:39;10.65;;;6.28;;
36855;SDS011;22788;51.434;6.786;2023-10-09T03:48:06;9.75;;;6.50;;
36855;SDS011;22788;51.434;6.786;2023-10-09T03:50:31;10.38;;;6.20;;
36855;SDS011;22788;51.434;6.786;2023-10-09T03:52:57;9.25;;;6.28;;
36855;SDS011;22788;51.434;6.786;2023-10-09T03:55:22;8.48;;;5.82;;
36855;SDS011;22788;51.434;6.786;2023-10-09T03:57:49;11.02;;;6.43;;
36855;SDS011;22788;51.434;6.786;2023-10-09T04:00:15;10.40;;;6.18;;
36855;SDS011;22788;51.434;6.786;2023-10-09T04:02:41;9.88;;;6.57;;
36855;SDS011;22788;51.434;6.786;2023-10-09T04:05:07;8.73;;;6.13;;
36855;SDS011;22788;51.434;6.786;2023-10-09T04:07:33;9.02;;;6.07;;
36855;SDS011;22788;51.434;6.786;2023-10-09T04:09:58;8.75;;;6.10;;
36855;SDS011;22788;51.434;6.786;2023-10-09T04:12:24;10.43;;;6.60;;
36855;SDS011;22788;51.434;6.786;2023-10-09T04:14:51;12.07;;;6.82;;
36855;SDS011;22788;51.434;6.786;2023-10-09T04:17:16;9.57;;;6.40;;
36855;SDS011;22788;51.434;6.786;2023-10-09T04:19:42;10.15;;;6.63;;
36855;SDS011;22788;51.434;6.786;2023-10-09T04:22:08;8.45;;;6.32;;
36855;SDS011;22788;51.434;6.786;2023-10-09T04:24:33;9.77;;;6.72;;
36855;SDS011;22788;51.434;6.786;2023-10-09T04:26:59;8.50;;;6.45;;
36855;SDS011;22788;51.434;6.786;2023-10-09T04:29:24;9.00;;;6.78;;
36855;SDS011;22788;51.434;6.786;2023-10-09T04:31:51;9.75;;;6.28;;
36855;SDS011;22788;51.434;6.786;2023-10-09T04:34:17;10.40;;;6.72;;
36855;SDS011;22788;51.434;6.786;2023-10-09T04:36:43;10.95;;;6.93;;
36855;SDS011;22788;51.434;6.786;2023-10-09T04:39:08;8.43;;;6.35;;
36855;SDS011;22788;51.434;6.786;2023-10-09T04:41:34;9.85;;;6.13;;
36855;SDS011;22788;51.434;6.786;2023-10-09T04:44:00;10.40;;;7.00;;
36855;SDS011;22788;51.434;6.786;2023-10-09T04:46:25;10.13;;;6.10;;
36855;SDS011;22788;51.434;6.786;2023-10-09T04:48:52;9.50;;;6.88;;
36855;SDS011;22788;51.434;6.786;2023-10-09T04:51:18;9.45;;;6.15;;
36855;SDS011;22788;51.434;6.786;2023-10-09T04:53:43;9.50;;;6.45;;
36855;SDS011;22788;51.434;6.786;2023-10-09T04:56:09;8.65;;;6.05;;
36855;SDS011;22788;51.434;6.786;2023-10-09T04:58:35;8.95;;;6.18;;
36855;SDS011;22788;51.434;6.786;2023-10-09T05:01:00;9.50;;;5.97;;
36855;SDS011;22788;51.434;6.786;2023-10-09T05:03:26;9.38;;;5.68;;
36855;SDS011;22788;51.434;6.786;2023-10-09T05:05:53;8.07;;;5.53;;
36855;SDS011;22788;51.434;6.786;2023-10-09T05:08:18;10.27;;;5.90;;
36855;SDS011;22788;51.434;6.786;2023-10-09T05:10:44;9.57;;;6.50;;
36855;SDS011;22788;51.434;6.786;2023-10-09T05:13:10;9.25;;;5.72;;
36855;SDS011;22788;51.434;6.786;2023-10-09T05:15:35;8.82;;;5.47;;
36855;SDS011;22788;51.434;6.786;2023-10-09T05:18:01;9.40;;;5.97;;
36855;SDS011;22788;51.434;6.786;2023-10-09T05:20:26;11.23;;;6.15;;
36855;SDS011;22788;51.434;6.786;2023-10-09T05:22:53;9.98;;;6.47;;
36855;SDS011;22788;51.434;6.786;2023-10-09T05:25:19;8.15;;;5.65;;
36855;SDS011;22788;51.434;6.786;2023-10-09T05:27:45;8.25;;;5.93;;
36855;SDS011;22788;51.434;6.786;2023-10-09T05:30:10;9.25;;;5.85;;
36855;SDS011;22788;51.434;6.786;2023-10-09T05:32:36;9.05;;;5.95;;
36855;SDS011;22788;51.434;6.786;2023-10-09T05:35:02;9.85;;;5.80;;
36855;SDS011;22788;51.434;6.786;2023-10-09T05:37:28;9.98;;;6.57;;
36855;SDS011;22788;51.434;6.786;2023-10-09T05:39:56;7.97;;;5.93;;
36855;SDS011;22788;51.434;6.786;2023-10-09T05:42:22;8.82;;;5.88;;
36855;SDS011;22788;51.434;6.786;2023-10-09T05:44:48;9.40;;;6.95;;
36855;SDS011;22788;51.434;6.786;2023-10-09T05:47:13;8.98;;;6.50;;
36855;SDS011;22788;51.434;6.786;2023-10-09T05:49:39;8.73;;;6.20;;
36855;SDS011;22788;51.434;6.786;2023-10-09T05:52:04;12.05;;;7.97;;
36855;SDS011;22788;51.434;6.786;2023-10-09T05:54:30;9.10;;;7.13;;
36855;SDS011;22788;51.434;6.786;2023-10-09T05:56:57;11.35;;;7.07;;
36855;SDS011;22788;51.434;6.786;2023-10-09T05:59:23;11.40;;;7.00;;
36855;SDS011;22788;51.434;6.786;2023-10-09T06:01:48;9.05;;;6.20;;
36855;SDS011;22788;51.434;6.786;2023-10-09T06:04:14;10.25;;;6.43;;
36855;SDS011;22788;51.434;6.786;2023-10-09T06:06:39;10.75;;;6.25;;
36855;SDS011;22788;51.434;6.786;2023-10-09T06:09:05;9.65;;;6.47;;
36855;SDS011;22788;51.434;6.786;2023-10-09T06:11:31;11.23;;;6.57;;
36855;SDS011;22788;51.434;6.786;2023-10-09T06:13:58;9.48;;;6.25;;
36855;SDS011;22788;51.434;6.786;2023-10-09T06:16:25;9.45;;;6.32;;
36855;SDS011;22788;51.434;6.786;2023-10-09T06:18:51;9.57;;;6.53;;
36855;SDS011;22788;51.434;6.786;2023-10-09T06:21:17;8.60;;;6.43;;
36855;SDS011;22788;51.434;6.786;2023-10-09T06:23:42;8.15;;;5.93;;
36855;SDS011;22788;51.434;6.786;2023-10-09T06:26:08;8.93;;;6.13;;
36855;SDS011;22788;51.434;6.786;2023-10-09T06:28:33;10.88;;;5.85;;
36855;SDS011;22788;51.434;6.786;2023-10-09T06:31:00;8.75;;;6.38;;
36855;SDS011;22788;51.434;6.786;2023-10-09T06:33:26;9.73;;;6.28;;
36855;SDS011;22788;51.434;6.786;2023-10-09T06:35:51;10.57;;;6.47;;
36855;SDS011;22788;51.434;6.786;2023-10-09T06:38:17;7.78;;;5.55;;
36855;SDS011;22788;51.434;6.786;2023-10-09T06:40:46;8.30;;;5.45;;
36855;SDS011;22788;51.434;6.786;2023-10-09T06:43:13;8.75;;;5.60;;
36855;SDS011;22788;51.434;6.786;2023-10-09T06:45:39;8.95;;;5.57;;
36855;SDS011;22788;51.434;6.786;2023-10-09T06:48:06;8.02;;;5.60;;
36855;SDS011;22788;51.434;6.786;2023-10-09T06:50:32;9.95;;;6.40;;
36855;SDS011;22788;51.434;6.786;2023-10-09T06:53:00;8.38;;;6.10;;
36855;SDS011;22788;51.434;6.786;2023-10-09T06:55:25;8.45;;;6.30;;
36855;SDS011;22788;51.434;6.786;2023-10-09T06:57:52;8.10;;;6.03;;
36855;SDS011;22788;51.434;6.786;2023-10-09T07:00:17;9.02;;;6.60;;
36855;SDS011;22788;51.434;6.786;2023-10-09T07:02:43;9.68;;;5.80;;
36855;SDS011;22788;51.434;6.786;2023-10-09T07:05:10;9.48;;;5.85;;
36855;SDS011;22788;51.434;6.786;2023-10-09T07:07:36;8.35;;;6.43;;
36855;SDS011;22788;51.434;6.786;2023-10-09T07:10:02;9.43;;;5.93;;
36855;SDS011;22788;51.434;6.786;2023-10-09T07:12:28;8.27;;;5.35;;
36855;SDS011;22788;51.434;6.786;2023-10-09T07:14:53;10.43;;;6.30;;
36855;SDS011;22788;51.434;6.786;2023-10-09T07:17:19;8.50;;;6.25;;
36855;SDS011;22788;51.434;6.786;2023-10-09T07:19:45;8.68;;;6.22;;
36855;SDS011;22788;51.434;6.786;2023-10-09T07:22:12;7.82;;;5.63;;
36855;SDS011;22788;51.434;6.786;2023-10-09T07:24:38;7.13;;;5.13;;
36855;SDS011;22788;51.434;6.786;2023-10-09T07:27:03;8.40;;;5.70;;
36855;SDS011;22788;51.434;6.786;2023-10-09T07:29:29;11.77;;;6.25;;
36855;SDS011;22788;51.434;6.786;2023-10-09T07:31:55;10.80;;;6.20;;
36855;SDS011;22788;51.434;6.786;2023-10-09T07:34:20;7.30;;;4.90;;
36855;SDS011;22788;51.434;6.786;2023-10-09T07:36:46;8.38;;;5.43;;
36855;SDS011;22788;51.434;6.786;2023-10-09T07:39:13;7.88;;;5.53;;
36855;SDS011;22788;51.434;6.786;2023-10-09T07:41:39;10.00;;;6.53;;
36855;SDS011;22788;51.434;6.786;2023-10-09T07:44:05;11.25;;;6.78;;
36855;SDS011;22788;51.434;6.786;2023-10-09T07:46:31;9.50;;;6.80;;
36855;SDS011;22788;51.434;6.786;2023-10-09T07:48:57;10.70;;;6.05;;
36855;SDS011;22788;51.434;6.786;2023-10-09T07:51:24;8.77;;;5.93;;
36855;SDS011;22788;51.434;6.786;2023-10-09T07:53:50;9.80;;;6.60;;
36855;SDS011;22788;51.434;6.786;2023-10-09T07:56:17;10.07;;;5.85;;
36855;SDS011;22788;51.434;6.786;2023-10-09T07:58:43;9.75;;;5.85;;
36855;SDS011;22788;51.434;6.786;2023-10-09T08:01:08;8.38;;;6.03;;
36855;SDS011;22788;51.434;6.786;2023-10-09T08:03:34;9.55;;;5.70;;
36855;SDS011;22788;51.434;6.786;2023-10-09T08:06:00;9.23;;;6.18;;
36855;SDS011;22788;51.434;6.786;2023-10-09T08:08:25;11.32;;;6.85;;
36855;SDS011;22788;51.434;6.786;2023-10-09T08:10:51;9.10;;;5.45;;
36855;SDS011;22788;51.434;6.786;2023-10-09T08:13:18;10.30;;;6.47;;
36855;SDS011;22788;51.434;6.786;2023-10-09T08:15:44;13.48;;;8.10;;
36855;SDS011;22788;51.434;6.786;2023-10-09T08:18:09;8.45;;;6.00;;
36855;SDS011;22788;51.434;6.786;2023-10-09T08:20:35;10.80;;;6.35;;
36855;SDS011;22788;51.434;6.786;2023-10-09T08:23:02;14.07;;;6.97;;
36855;SDS011;22788;51.434;6.786;2023-10-09T08:25:27;10.05;;;5.97;;
36855;SDS011;22788;51.434;6.786;2023-10-09T08:27:54;11.00;;;5.85;;
36855;SDS011;22788;51.434;6.786;2023-10-09T08:30:21;10.43;;;6.25;;
36855;SDS011;22788;51.434;6.786;2023-10-09T08:32:48;6.88;;;5.25;;
36855;SDS011;22788;51.434;6.786;2023-10-09T08:35:15;8.10;;;5.40;;
36855;SDS011;22788;51.434;6.786;2023-10-09T08:37:40;10.05;;;6.95;;
36855;SDS011;22788;51.434;6.786;2023-10-09T08:40:06;7.57;;;5.78;;
36855;SDS011;22788;51.434;6.786;2023-10-09T08:42:33;8.55;;;5.70;;
36855;SDS011;22788;51.434;6.786;2023-10-09T08:44:58;8.48;;;5.65;;
36855;SDS011;22788;51.434;6.786;2023-10-09T08:47:26;7.65;;;5.57;;
36855;SDS011;22788;51.434;6.786;2023-10-09T08:49:52;10.13;;;6.07;;
36855;SDS011;22788;51.434;6.786;2023-10-09T08:52:17;11.23;;;6.75;;
36855;SDS011;22788;51.434;6.786;2023-10-09T08:54:43;8.52;;;5.95;;
36855;SDS011;22788;51.434;6.786;2023-10-09T08:57:09;7.97;;;5.97;;
36855;SDS011;22788;51.434;6.786;2023-10-09T08:59:39;11.25;;;6.18;;
36855;SDS011;22788;51.434;6.786;2023-10-09T09:02:06;9.18;;;5.68;;
36855;SDS011;22788;51.434;6.786;2023-10-09T09:04:36;7.70;;;5.50;;
36855;SDS011;22788;51.434;6.786;2023-10-09T09:07:02;7.72;;;6.13;;
36855;SDS011;22788;51.434;6.786;2023-10-09T09:09:27;6.97;;;5.13;;
36855;SDS011;22788;51.434;6.786;2023-10-09T09:11:53;11.73;;;8.13;;
36855;SDS011;22788;51.434;6.786;2023-10-09T09:14:19;10.48;;;5.68;;
36855;SDS011;22788;51.434;6.786;2023-10-09T09:16:45;7.75;;;5.50;;
36855;SDS011;22788;51.434;6.786;2023-10-09T09:19:10;10.93;;;6.53;;
36855;SDS011;22788;51.434;6.786;2023-10-09T09:21:38;9.88;;;5.68;;
36855;SDS011;22788;51.434;6.786;2023-10-09T09:24:05;7.55;;;6.13;;
36855;SDS011;22788;51.434;6.786;2023-10-09T09:26:35;8.82;;;5.78;;
36855;SDS011;22788;51.434;6.786;2023-10-09T09:29:03;10.13;;;6.22;;
36855;SDS011;22788;51.434;6.786;2023-10-09T09:31:29;12.07;;;7.55;;
36855;SDS011;22788;51.434;6.786;2023-10-09T09:33:55;15.30;;;7.38;;
36855;SDS011;22788;51.434;6.786;2023-10-09T09:36:21;8.98;;;6.80;;
36855;SDS011;22788;51.434;6.786;2023-10-09T09:38:48;14.07;;;7.93;;
36855;SDS011;22788;51.434;6.786;2023-10-09T09:41:14;6.85;;;5.85;;
36855;SDS011;22788;51.434;6.786;2023-10-09T09:43:40;10.27;;;8.43;;
36855;SDS011;22788;51.434;6.786;2023-10-09T09:46:07;9.38;;;6.40;;
36855;SDS011;22788;51.434;6.786;2023-10-09T09:48:34;10.15;;;7.30;;
36855;SDS011;22788;51.434;6.786;2023-10-09T09:51:03;11.52;;;6.90;;
36855;SDS011;22788;51.434;6.786;2023-10-09T09:53:28;10.73;;;6.57;;
36855;SDS011;22788;51.434;6.786;2023-10-09T09:55:55;10.30;;;6.93;;
36855;SDS011;22788;51.434;6.786;2023-10-09T09:58:21;15.38;;;8.38;;
36855;SDS011;22788;51.434;6.786;2023-10-09T10:00:47;13.30;;;7.78;;
36855;SDS011;22788;51.434;6.786;2023-10-09T10:03:16;9.05;;;6.22;;
36855;SDS011;22788;51.434;6.786;2023-10-09T10:05:45;10.00;;;6.38;;
36855;SDS011;22788;51.434;6.786;2023-10-09T10:08:14;10.40;;;6.32;;
36855;SDS011;22788;51.434;6.786;2023-10-09T10:10:41;11.30;;;7.50;;
36855;SDS011;22788;51.434;6.786;2023-10-09T10:13:08;11.55;;;7.07;;
36855;SDS011;22788;51.434;6.786;2023-10-09T10:18:55;12.63;;;7.63;;
36855;SDS011;22788;51.434;6.786;2023-10-09T10:21:22;15.25;;;8.68;;
36855;SDS011;22788;51.434;6.786;2023-10-09T10:23:48;11.07;;;7.47;;
36855;SDS011;22788;51.434;6.786;2023-10-09T10:26:17;11.50;;;6.35;;
36855;SDS011;22788;51.434;6.786;2023-10-09T10:28:44;8.95;;;5.88;;
36855;SDS011;22788;51.434;6.786;2023-10-09T10:34:24;11.48;;;6.35;;
36855;SDS011;22788;51.434;6.786;2023-10-09T10:36:50;11.73;;;6.90;;
36855;SDS011;22788;51.434;6.786;2023-10-09T10:39:16;11.55;;;6.70;;
36855;SDS011;22788;51.434;6.786;2023-10-09T10:41:42;11.75;;;7.43;;
36855;SDS011;22788;51.434;6.786;2023-10-09T10:44:26;14.07;;;9.07;;
36855;SDS011;22788;51.434;6.786;2023-10-09T10:46:52;9.52;;;6.65;;
36855;SDS011;22788;51.434;6.786;2023-10-09T10:49:18;9.65;;;6.07;;
36855;SDS011;22788;51.434;6.786;2023-10-09T10:51:45;10.25;;;6.75;;
36855;SDS011;22788;51.434;6.786;2023-10-09T10:54:10;12.57;;;8.15;;
36855;SDS011;22788;51.434;6.786;2023-10-09T10:56:37;11.93;;;6.90;;
36855;SDS011;22788;51.434;6.786;2023-10-09T10:59:03;11.02;;;6.45;;
36855;SDS011;22788;51.434;6.786;2023-10-09T11:01:31;9.23;;;6.88;;
36855;SDS011;22788;51.434;6.786;2023-10-09T11:03:57;10.63;;;7.05;;
36855;SDS011;22788;51.434;6.786;2023-10-09T11:06:25;13.63;;;8.55;;
36855;SDS011;22788;51.434;6.786;2023-10-09T11:08:52;11.52;;;7.35;;
36855;SDS011;22788;51.434;6.786;2023-10-09T11:11:17;10.32;;;6.72;;
36855;SDS011;22788;51.434;6.786;2023-10-09T11:13:43;13.18;;;8.40;;
36855;SDS011;22788;51.434;6.786;2023-10-09T11:16:09;10.85;;;6.88;;
36855;SDS011;22788;51.434;6.786;2023-10-09T11:18:38;14.60;;;8.25;;
36855;SDS011;22788;51.434;6.786;2023-10-09T11:21:05;11.43;;;6.53;;
36855;SDS011;22788;51.434;6.786;2023-10-09T11:23:31;11.23;;;7.47;;
36855;SDS011;22788;51.434;6.786;2023-10-09T11:25:57;8.50;;;6.80;;
36855;SDS011;22788;51.434;6.786;2023-10-09T11:28:23;9.93;;;7.20;;
36855;SDS011;22788;51.434;6.786;2023-10-09T11:30:48;12.85;;;8.80;;
36855;SDS011;22788;51.434;6.786;2023-10-09T11:33:14;14.75;;;7.25;;
36855;SDS011;22788;51.434;6.786;2023-10-09T11:35:41;13.02;;;8.77;;
36855;SDS011;22788;51.434;6.786;2023-10-09T11:38:18;13.70;;;9.45;;
36855;SDS011;22788;51.434;6.786;2023-10-09T11:40:43;12.50;;;7.30;;
36855;SDS011;22788;51.434;6.786;2023-10-09T11:43:09;15.13;;;9.82;;
36855;SDS011;22788;51.434;6.786;2023-10-09T11:45:35;11.98;;;8.57;;
36855;SDS011;22788;51.434;6.786;2023-10-09T11:48:15;10.55;;;6.30;;
36855;SDS011;22788;51.434;6.786;2023-10-09T11:50:44;13.60;;;8.55;;
36855;SDS011;22788;51.434;6.786;2023-10-09T11:53:10;12.85;;;8.95;;
36855;SDS011;22788;51.434;6.786;2023-10-09T11:55:36;12.63;;;7.63;;
36855;SDS011;22788;51.434;6.786;2023-10-09T11:58:02;11.45;;;7.22;;
36855;SDS011;22788;51.434;6.786;2023-10-09T12:00:28;11.30;;;7.00;;
36855;SDS011;22788;51.434;6.786;2023-10-09T12:02:54;14.15;;;9.05;;
36855;SDS011;22788;51.434;6.786;2023-10-09T12:05:20;9.85;;;6.88;;
36855;SDS011;22788;51.434;6.786;2023-10-09T12:07:47;10.38;;;6.88;;
36855;SDS011;22788;51.434;6.786;2023-10-09T12:10:13;12.60;;;7.25;;
36855;SDS011;22788;51.434;6.786;2023-10-09T12:12:39;17.33;;;10.27;;
36855;SDS011;22788;51.434;6.786;2023-10-09T12:15:05;13.80;;;7.90;;
36855;SDS011;22788;51.434;6.786;2023-10-09T12:17:31;12.73;;;8.20;;
36855;SDS011;22788;51.434;6.786;2023-10-09T12:19:57;20.98;;;10.20;;
36855;SDS011;22788;51.434;6.786;2023-10-09T12:22:23;11.38;;;8.40;;
36855;SDS011;22788;51.434;6.786;2023-10-09T12:24:50;12.13;;;9.15;;
36855;SDS011;22788;51.434;6.786;2023-10-09T12:27:15;11.80;;;8.52;;
36855;SDS011;22788;51.434;6.786;2023-10-09T12:29:41;15.15;;;7.30;;
36855;SDS011;22788;51.434;6.786;2023-10-09T12:32:06;18.60;;;11.32;;
36855;SDS011;22788;51.434;6.786;2023-10-09T12:34:32;13.77;;;7.82;;
36855;SDS011;22788;51.434;6.786;2023-10-09T12:36:58;17.90;;;11.60;;
36855;SDS011;22788;51.434;6.786;2023-10-09T12:39:23;14.95;;;9.98;;
36855;SDS011;22788;51.434;6.786;2023-10-09T12:41:50;14.68;;;8.30;;
36855;SDS011;22788;51.434;6.786;2023-10-09T12:44:16;13.95;;;9.73;;
36855;SDS011;22788;51.434;6.786;2023-10-09T12:46:42;12.82;;;8.48;;
36855;SDS011;22788;51.434;6.786;2023-10-09T12:49:08;16.35;;;10.30;;
36855;SDS011;22788;51.434;6.786;2023-10-09T12:51:34;17.35;;;9.77;;
36855;SDS011;22788;51.434;6.786;2023-10-09T12:54:00;20.70;;;12.18;;
36855;SDS011;22788;51.434;6.786;2023-10-09T12:56:25;17.85;;;11.18;;
36855;SDS011;22788;51.434;6.786;2023-10-09T12:58:53;17.70;;;10.25;;
36855;SDS011;22788;51.434;6.786;2023-10-09T13:01:19;15.93;;;10.40;;
36855;SDS011;22788;51.434;6.786;2023-10-09T13:03:45;20.92;;;10.43;;
36855;SDS011;22788;51.434;6.786;2023-10-09T13:06:10;16.52;;;10.45;;
36855;SDS011;22788;51.434;6.786;2023-10-09T13:08:36;16.42;;;8.20;;
36855;SDS011;22788;51.434;6.786;2023-10-09T13:11:02;12.10;;;9.05;;
36855;SDS011;22788;51.434;6.786;2023-10-09T13:13:29;13.90;;;9.20;;
36855;SDS011;22788;51.434;6.786;2023-10-09T13:15:56;12.45;;;7.82;;
36855;SDS011;22788;51.434;6.786;2023-10-09T13:18:22;13.13;;;9.70;;
36855;SDS011;22788;51.434;6.786;2023-10-09T13:20:47;21.02;;;10.98;;
36855;SDS011;22788;51.434;6.786;2023-10-09T13:23:13;15.60;;;9.60;;
36855;SDS011;22788;51.434;6.786;2023-10-09T13:25:38;15.75;;;9.85;;
36855;SDS011;22788;51.434;6.786;2023-10-09T13:28:04;13.30;;;9.40;;
36855;SDS011;22788;51.434;6.786;2023-10-09T13:30:30;19.15;;;11.68;;
36855;SDS011;22788;51.434;6.786;2023-10-09T13:32:57;19.80;;;12.93;;
36855;SDS011;22788;51.434;6.786;2023-10-09T13:35:22;22.80;;;12.75;;
36855;SDS011;22788;51.434;6.786;2023-10-09T13:37:48;15.88;;;10.50;;
36855;SDS011;22788;51.434;6.786;2023-10-09T13:40:13;17.60;;;10.00;;
36855;SDS011;22788;51.434;6.786;2023-10-09T13:42:39;14.93;;;9.25;;
36855;SDS011;22788;51.434;6.786;2023-10-09T13:45:05;16.33;;;10.18;;
36855;SDS011;22788;51.434;6.786;2023-10-09T13:47:31;17.17;;;11.07;;
36855;SDS011;22788;51.434;6.786;2023-10-09T13:49:58;16.17;;;9.95;;
36855;SDS011;22788;51.434;6.786;2023-10-09T13:52:24;17.60;;;10.82;;
36855;SDS011;22788;51.434;6.786;2023-10-09T13:54:50;17.20;;;10.52;;
36855;SDS011;22788;51.434;6.786;2023-10-09T13:57:16;18.55;;;10.57;;
36855;SDS011;22788;51.434;6.786;2023-10-09T13:59:42;23.20;;;10.85;;
36855;SDS011;22788;51.434;6.786;2023-10-09T14:02:07;15.32;;;10.43;;
36855;SDS011;22788;51.434;6.786;2023-10-09T14:04:33;20.60;;;12.10;;
36855;SDS011;22788;51.434;6.786;2023-10-09T14:07:00;18.13;;;9.75;;
36855;SDS011;22788;51.434;6.786;2023-10-09T14:09:26;16.23;;;11.70;;
36855;SDS011;22788;51.434;6.786;2023-10-09T14:11:52;15.98;;;10.00;;
36855;SDS011;22788;51.434;6.786;2023-10-09T14:14:19;20.33;;;11.35;;
36855;SDS011;22788;51.434;6.786;2023-10-09T14:16:45;14.35;;;9.57;;
36855;SDS011;22788;51.434;6.786;2023-10-09T14:19:10;14.15;;;9.90;;
36855;SDS011;22788;51.434;6.786;2023-10-09T14:21:36;13.43;;;8.45;;
36855;SDS011;22788;51.434;6.786;2023-10-09T14:24:03;16.55;;;10.30;;
36855;SDS011;22788;51.434;6.786;2023-10-09T14:26:29;17.77;;;10.07;;
36855;SDS011;22788;51.434;6.786;2023-10-09T14:28:55;14.80;;;8.57;;
36855;SDS011;22788;51.434;6.786;2023-10-09T14:31:21;18.08;;;10.60;;
36855;SDS011;22788;51.434;6.786;2023-10-09T14:33:47;27.03;;;17.80;;
36855;SDS011;22788;51.434;6.786;2023-10-09T14:36:13;26.15;;;14.57;;
36855;SDS011;22788;51.434;6.786;2023-10-09T14:38:39;26.90;;;16.08;;